sensor_id;sensor_type;location;lat;lon;timestamp;P1;durP1;ratioP1;P2;durP2;ratioP2
21258;SDS011;10787;53.364;-1.480;2023-08-20T00:01:12;7.10;;;1.63;;
21258;SDS011;10787;53.364;-1.480;2023-08-20T00:03:58;7.55;;;2.40;;
21258;SDS011;10787;53.364;-1.480;2023-08-20T00:06:43;8.93;;;1.65;;
21258;SDS011;10787;53.364;-1.480;2023-08-20T00:09:29;6.50;;;1.80;;
21258;SDS011;10787;53.364;-1.480;2023-08-20T00:12:14;8.00;;;1.90;;
21258;SDS011;10787;53.364;-1.480;2023-08-20T00:15:00;5.97;;;1.92;;
21258;SDS011;10787;53.364;-1.480;2023-08-20T00:17:48;4.50;;;1.80;;
21258;SDS011;10787;53.364;-1.480;2023-08-20T00:20:33;8.40;;;2.13;;
21258;SDS011;10787;53.364;-1.480;2023-08-20T00:23:17;5.38;;;1.83;;
21258;SDS011;10787;53.364;-1.480;2023-08-20T00:26:02;4.55;;;2.00;;
21258;SDS011;10787;53.364;-1.480;2023-08-20T00:28:47;8.20;;;1.90;;
21258;SDS011;10787;53.364;-1.480;2023-08-20T00:31:32;5.25;;;1.73;;
21258;SDS011;10787;53.364;-1.480;2023-08-20T00:34:16;6.03;;;1.83;;
21258;SDS011;10787;53.364;-1.480;2023-08-20T00:37:00;7.40;;;2.22;;
21258;SDS011;10787;53.364;-1.480;2023-08-20T00:39:46;9.10;;;2.28;;
21258;SDS011;10787;53.364;-1.480;2023-08-20T00:42:30;5.90;;;2.13;;
21258;SDS011;10787;53.364;-1.480;2023-08-20T00:45:15;6.63;;;2.33;;
21258;SDS011;10787;53.364;-1.480;2023-08-20T00:48:03;5.93;;;1.95;;
21258;SDS011;10787;53.364;-1.480;2023-08-20T00:50:48;9.20;;;2.25;;
21258;SDS011;10787;53.364;-1.480;2023-08-20T00:53:32;5.93;;;2.10;;
21258;SDS011;10787;53.364;-1.480;2023-08-20T00:56:16;13.00;;;2.20;;
21258;SDS011;10787;53.364;-1.480;2023-08-20T00:59:01;8.63;;;2.58;;
21258;SDS011;10787;53.364;-1.480;2023-08-20T01:01:46;9.25;;;3.10;;
21258;SDS011;10787;53.364;-1.480;2023-08-20T01:04:30;7.75;;;2.42;;
21258;SDS011;10787;53.364;-1.480;2023-08-20T01:07:30;7.35;;;2.30;;
21258;SDS011;10787;53.364;-1.480;2023-08-20T01:13:02;5.88;;;1.92;;
21258;SDS011;10787;53.364;-1.480;2023-08-20T01:15:48;8.63;;;2.20;;
21258;SDS011;10787;53.364;-1.480;2023-08-20T01:18:32;6.22;;;2.13;;
21258;SDS011;10787;53.364;-1.480;2023-08-20T01:21:23;8.70;;;2.25;;
21258;SDS011;10787;53.364;-1.480;2023-08-20T01:24:38;5.88;;;1.95;;
21258;SDS011;10787;53.364;-1.480;2023-08-20T01:27:58;5.85;;;2.10;;
21258;SDS011;10787;53.364;-1.480;2023-08-20T01:31:00;8.57;;;2.13;;
21258;SDS011;10787;53.364;-1.480;2023-08-20T01:33:44;7.03;;;2.25;;
21258;SDS011;10787;53.364;-1.480;2023-08-20T01:36:29;6.25;;;1.95;;
21258;SDS011;10787;53.364;-1.480;2023-08-20T01:39:13;6.93;;;2.15;;
21258;SDS011;10787;53.364;-1.480;2023-08-20T01:41:57;8.77;;;2.25;;
21258;SDS011;10787;53.364;-1.480;2023-08-20T01:44:42;8.45;;;2.10;;
21258;SDS011;10787;53.364;-1.480;2023-08-20T01:47:26;8.50;;;2.17;;
21258;SDS011;10787;53.364;-1.480;2023-08-20T01:50:10;6.10;;;2.13;;
21258;SDS011;10787;53.364;-1.480;2023-08-20T01:52:55;8.25;;;2.22;;
21258;SDS011;10787;53.364;-1.480;2023-08-20T01:55:39;7.60;;;2.50;;
21258;SDS011;10787;53.364;-1.480;2023-08-20T01:58:23;8.93;;;2.28;;
21258;SDS011;10787;53.364;-1.480;2023-08-20T02:01:08;6.05;;;2.28;;
21258;SDS011;10787;53.364;-1.480;2023-08-20T02:03:52;7.85;;;2.38;;
21258;SDS011;10787;53.364;-1.480;2023-08-20T02:06:37;7.28;;;1.98;;
21258;SDS011;10787;53.364;-1.480;2023-08-20T02:09:21;8.32;;;2.20;;
21258;SDS011;10787;53.364;-1.480;2023-08-20T02:12:06;7.75;;;2.08;;
21258;SDS011;10787;53.364;-1.480;2023-08-20T02:14:50;13.48;;;2.42;;
21258;SDS011;10787;53.364;-1.480;2023-08-20T02:17:35;7.72;;;2.03;;
21258;SDS011;10787;53.364;-1.480;2023-08-20T02:20:19;10.45;;;2.55;;
21258;SDS011;10787;53.364;-1.480;2023-08-20T02:23:03;6.70;;;2.15;;
21258;SDS011;10787;53.364;-1.480;2023-08-20T02:25:48;10.38;;;2.42;;
21258;SDS011;10787;53.364;-1.480;2023-08-20T02:28:32;7.82;;;1.85;;
21258;SDS011;10787;53.364;-1.480;2023-08-20T02:31:16;9.65;;;2.05;;
21258;SDS011;10787;53.364;-1.480;2023-08-20T02:34:01;6.22;;;2.25;;
21258;SDS011;10787;53.364;-1.480;2023-08-20T02:36:45;5.72;;;2.08;;
21258;SDS011;10787;53.364;-1.480;2023-08-20T02:39:30;10.55;;;2.60;;
21258;SDS011;10787;53.364;-1.480;2023-08-20T02:42:15;6.63;;;1.95;;
21258;SDS011;10787;53.364;-1.480;2023-08-20T02:44:59;9.07;;;2.20;;
21258;SDS011;10787;53.364;-1.480;2023-08-20T02:47:43;7.55;;;2.30;;
21258;SDS011;10787;53.364;-1.480;2023-08-20T02:50:27;7.72;;;2.20;;
21258;SDS011;10787;53.364;-1.480;2023-08-20T02:53:12;8.65;;;2.47;;
21258;SDS011;10787;53.364;-1.480;2023-08-20T02:55:55;8.57;;;2.45;;
21258;SDS011;10787;53.364;-1.480;2023-08-20T02:58:40;8.20;;;2.30;;
21258;SDS011;10787;53.364;-1.480;2023-08-20T03:01:25;12.50;;;2.20;;
21258;SDS011;10787;53.364;-1.480;2023-08-20T03:04:10;7.35;;;2.13;;
21258;SDS011;10787;53.364;-1.480;2023-08-20T03:06:54;8.80;;;2.20;;
21258;SDS011;10787;53.364;-1.480;2023-08-20T03:09:38;8.00;;;1.88;;
21258;SDS011;10787;53.364;-1.480;2023-08-20T03:12:22;5.95;;;2.00;;
21258;SDS011;10787;53.364;-1.480;2023-08-20T03:15:06;12.02;;;2.40;;
21258;SDS011;10787;53.364;-1.480;2023-08-20T03:17:51;8.63;;;2.20;;
21258;SDS011;10787;53.364;-1.480;2023-08-20T03:20:36;8.55;;;2.30;;
21258;SDS011;10787;53.364;-1.480;2023-08-20T03:23:20;7.38;;;2.30;;
21258;SDS011;10787;53.364;-1.480;2023-08-20T03:26:04;9.75;;;2.50;;
21258;SDS011;10787;53.364;-1.480;2023-08-20T03:28:48;8.75;;;2.13;;
21258;SDS011;10787;53.364;-1.480;2023-08-20T03:31:32;10.10;;;2.20;;
21258;SDS011;10787;53.364;-1.480;2023-08-20T03:34:16;9.30;;;2.33;;
21258;SDS011;10787;53.364;-1.480;2023-08-20T03:37:01;8.30;;;1.98;;
21258;SDS011;10787;53.364;-1.480;2023-08-20T03:39:46;7.63;;;2.20;;
21258;SDS011;10787;53.364;-1.480;2023-08-20T03:42:30;7.65;;;2.10;;
21258;SDS011;10787;53.364;-1.480;2023-08-20T03:45:14;8.60;;;2.10;;
21258;SDS011;10787;53.364;-1.480;2023-08-20T03:47:58;9.73;;;2.28;;
21258;SDS011;10787;53.364;-1.480;2023-08-20T03:50:43;7.53;;;2.10;;
21258;SDS011;10787;53.364;-1.480;2023-08-20T03:53:27;9.57;;;2.58;;
21258;SDS011;10787;53.364;-1.480;2023-08-20T03:56:12;8.05;;;2.28;;
21258;SDS011;10787;53.364;-1.480;2023-08-20T03:58:56;6.38;;;2.20;;
21258;SDS011;10787;53.364;-1.480;2023-08-20T04:01:40;10.50;;;2.40;;
21258;SDS011;10787;53.364;-1.480;2023-08-20T04:04:25;9.57;;;2.70;;
21258;SDS011;10787;53.364;-1.480;2023-08-20T04:07:10;8.75;;;2.20;;
21258;SDS011;10787;53.364;-1.480;2023-08-20T04:09:54;9.35;;;2.40;;
21258;SDS011;10787;53.364;-1.480;2023-08-20T04:12:38;8.32;;;2.08;;
21258;SDS011;10787;53.364;-1.480;2023-08-20T04:15:22;10.13;;;2.20;;
21258;SDS011;10787;53.364;-1.480;2023-08-20T04:18:07;6.18;;;2.38;;
21258;SDS011;10787;53.364;-1.480;2023-08-20T04:20:52;10.77;;;2.67;;
21258;SDS011;10787;53.364;-1.480;2023-08-20T04:23:36;7.30;;;2.50;;
21258;SDS011;10787;53.364;-1.480;2023-08-20T04:26:20;9.68;;;2.33;;
21258;SDS011;10787;53.364;-1.480;2023-08-20T04:29:05;6.20;;;2.00;;
21258;SDS011;10787;53.364;-1.480;2023-08-20T04:31:50;10.73;;;2.10;;
21258;SDS011;10787;53.364;-1.480;2023-08-20T04:34:34;9.20;;;2.40;;
21258;SDS011;10787;53.364;-1.480;2023-08-20T04:37:19;7.70;;;2.42;;
21258;SDS011;10787;53.364;-1.480;2023-08-20T04:40:03;7.55;;;2.42;;
21258;SDS011;10787;53.364;-1.480;2023-08-20T04:42:48;8.88;;;2.30;;
21258;SDS011;10787;53.364;-1.480;2023-08-20T04:45:32;7.10;;;2.17;;
21258;SDS011;10787;53.364;-1.480;2023-08-20T04:48:16;12.43;;;2.67;;
21258;SDS011;10787;53.364;-1.480;2023-08-20T04:51:01;8.88;;;2.60;;
21258;SDS011;10787;53.364;-1.480;2023-08-20T04:53:46;8.85;;;2.72;;
21258;SDS011;10787;53.364;-1.480;2023-08-20T04:56:31;9.63;;;2.40;;
21258;SDS011;10787;53.364;-1.480;2023-08-20T04:59:15;8.63;;;2.50;;
21258;SDS011;10787;53.364;-1.480;2023-08-20T05:01:59;7.43;;;2.45;;
21258;SDS011;10787;53.364;-1.480;2023-08-20T05:04:43;6.85;;;2.15;;
21258;SDS011;10787;53.364;-1.480;2023-08-20T05:07:28;8.93;;;2.40;;
21258;SDS011;10787;53.364;-1.480;2023-08-20T05:10:13;9.60;;;2.50;;
21258;SDS011;10787;53.364;-1.480;2023-08-20T05:12:56;8.80;;;2.50;;
21258;SDS011;10787;53.364;-1.480;2023-08-20T05:15:41;9.73;;;2.60;;
21258;SDS011;10787;53.364;-1.480;2023-08-20T05:18:25;8.88;;;2.17;;
21258;SDS011;10787;53.364;-1.480;2023-08-20T05:21:10;7.15;;;2.47;;
21258;SDS011;10787;53.364;-1.480;2023-08-20T05:23:57;8.93;;;2.47;;
21258;SDS011;10787;53.364;-1.480;2023-08-20T05:26:41;11.80;;;2.40;;
21258;SDS011;10787;53.364;-1.480;2023-08-20T05:29:25;9.55;;;2.58;;
21258;SDS011;10787;53.364;-1.480;2023-08-20T05:32:09;9.30;;;2.63;;
21258;SDS011;10787;53.364;-1.480;2023-08-20T05:34:54;9.23;;;2.40;;
21258;SDS011;10787;53.364;-1.480;2023-08-20T05:37:38;10.35;;;2.30;;
21258;SDS011;10787;53.364;-1.480;2023-08-20T05:40:22;9.05;;;2.40;;
21258;SDS011;10787;53.364;-1.480;2023-08-20T05:43:06;9.43;;;2.58;;
21258;SDS011;10787;53.364;-1.480;2023-08-20T05:45:50;8.35;;;2.58;;
21258;SDS011;10787;53.364;-1.480;2023-08-20T05:48:34;10.32;;;2.67;;
21258;SDS011;10787;53.364;-1.480;2023-08-20T05:51:19;8.02;;;2.83;;
21258;SDS011;10787;53.364;-1.480;2023-08-20T05:54:03;9.15;;;2.53;;
21258;SDS011;10787;53.364;-1.480;2023-08-20T05:56:48;9.65;;;2.55;;
21258;SDS011;10787;53.364;-1.480;2023-08-20T05:59:32;10.13;;;2.53;;
21258;SDS011;10787;53.364;-1.480;2023-08-20T06:02:16;10.95;;;2.50;;
21258;SDS011;10787;53.364;-1.480;2023-08-20T06:05:01;8.15;;;2.17;;
21258;SDS011;10787;53.364;-1.480;2023-08-20T06:07:48;10.70;;;2.60;;
21258;SDS011;10787;53.364;-1.480;2023-08-20T06:10:32;9.45;;;2.47;;
21258;SDS011;10787;53.364;-1.480;2023-08-20T06:13:16;11.40;;;2.78;;
21258;SDS011;10787;53.364;-1.480;2023-08-20T06:16:00;9.70;;;2.50;;
21258;SDS011;10787;53.364;-1.480;2023-08-20T06:18:45;8.82;;;2.38;;
21258;SDS011;10787;53.364;-1.480;2023-08-20T06:21:29;8.57;;;2.65;;
21258;SDS011;10787;53.364;-1.480;2023-08-20T06:24:13;9.20;;;2.60;;
21258;SDS011;10787;53.364;-1.480;2023-08-20T06:26:58;10.32;;;2.40;;
21258;SDS011;10787;53.364;-1.480;2023-08-20T06:29:42;10.73;;;2.75;;
21258;SDS011;10787;53.364;-1.480;2023-08-20T06:32:27;9.95;;;2.70;;
21258;SDS011;10787;53.364;-1.480;2023-08-20T06:35:11;10.70;;;2.33;;
21258;SDS011;10787;53.364;-1.480;2023-08-20T06:37:55;9.35;;;2.78;;
21258;SDS011;10787;53.364;-1.480;2023-08-20T06:40:39;9.30;;;2.53;;
21258;SDS011;10787;53.364;-1.480;2023-08-20T06:43:23;9.40;;;2.33;;
21258;SDS011;10787;53.364;-1.480;2023-08-20T06:46:08;11.23;;;3.22;;
21258;SDS011;10787;53.364;-1.480;2023-08-20T06:48:53;9.73;;;2.50;;
21258;SDS011;10787;53.364;-1.480;2023-08-20T06:51:37;8.55;;;2.67;;
21258;SDS011;10787;53.364;-1.480;2023-08-20T06:54:21;7.63;;;2.50;;
21258;SDS011;10787;53.364;-1.480;2023-08-20T06:57:06;8.75;;;2.60;;
21258;SDS011;10787;53.364;-1.480;2023-08-20T06:59:50;8.75;;;2.65;;
21258;SDS011;10787;53.364;-1.480;2023-08-20T07:02:34;9.32;;;2.70;;
21258;SDS011;10787;53.364;-1.480;2023-08-20T07:05:18;8.15;;;2.83;;
21258;SDS011;10787;53.364;-1.480;2023-08-20T07:08:02;7.05;;;2.53;;
21258;SDS011;10787;53.364;-1.480;2023-08-20T07:10:47;7.82;;;2.60;;
21258;SDS011;10787;53.364;-1.480;2023-08-20T07:13:31;9.95;;;3.08;;
21258;SDS011;10787;53.364;-1.480;2023-08-20T07:16:16;10.90;;;3.13;;
21258;SDS011;10787;53.364;-1.480;2023-08-20T07:19:00;6.60;;;2.72;;
21258;SDS011;10787;53.364;-1.480;2023-08-20T07:21:44;9.35;;;2.63;;
21258;SDS011;10787;53.364;-1.480;2023-08-20T07:24:28;10.38;;;2.83;;
21258;SDS011;10787;53.364;-1.480;2023-08-20T07:27:13;5.72;;;2.40;;
21258;SDS011;10787;53.364;-1.480;2023-08-20T07:29:57;11.35;;;2.80;;
21258;SDS011;10787;53.364;-1.480;2023-08-20T07:32:41;7.80;;;2.60;;
21258;SDS011;10787;53.364;-1.480;2023-08-20T07:35:25;10.93;;;3.00;;
21258;SDS011;10787;53.364;-1.480;2023-08-20T07:38:10;6.82;;;2.30;;
21258;SDS011;10787;53.364;-1.480;2023-08-20T07:40:54;8.75;;;2.55;;
21258;SDS011;10787;53.364;-1.480;2023-08-20T07:43:38;11.13;;;2.83;;
21258;SDS011;10787;53.364;-1.480;2023-08-20T07:46:24;9.13;;;2.58;;
21258;SDS011;10787;53.364;-1.480;2023-08-20T07:49:08;8.40;;;2.50;;
21258;SDS011;10787;53.364;-1.480;2023-08-20T07:51:52;8.45;;;2.40;;
21258;SDS011;10787;53.364;-1.480;2023-08-20T07:54:38;5.70;;;2.30;;
21258;SDS011;10787;53.364;-1.480;2023-08-20T07:57:22;8.32;;;2.58;;
21258;SDS011;10787;53.364;-1.480;2023-08-20T08:00:07;8.25;;;2.72;;
21258;SDS011;10787;53.364;-1.480;2023-08-20T08:02:52;9.52;;;2.60;;
21258;SDS011;10787;53.364;-1.480;2023-08-20T08:05:36;9.23;;;2.30;;
21258;SDS011;10787;53.364;-1.480;2023-08-20T08:08:21;7.78;;;2.25;;
21258;SDS011;10787;53.364;-1.480;2023-08-20T08:11:05;5.75;;;2.20;;
21258;SDS011;10787;53.364;-1.480;2023-08-20T08:13:50;5.70;;;2.30;;
21258;SDS011;10787;53.364;-1.480;2023-08-20T08:16:34;6.78;;;2.40;;
21258;SDS011;10787;53.364;-1.480;2023-08-20T08:19:18;4.60;;;2.00;;
21258;SDS011;10787;53.364;-1.480;2023-08-20T08:22:03;6.85;;;2.22;;
21258;SDS011;10787;53.364;-1.480;2023-08-20T08:24:48;8.48;;;2.22;;
21258;SDS011;10787;53.364;-1.480;2023-08-20T08:27:33;7.43;;;2.30;;
21258;SDS011;10787;53.364;-1.480;2023-08-20T08:30:17;7.15;;;2.30;;
21258;SDS011;10787;53.364;-1.480;2023-08-20T08:33:01;9.95;;;2.15;;
21258;SDS011;10787;53.364;-1.480;2023-08-20T08:35:45;5.75;;;2.22;;
21258;SDS011;10787;53.364;-1.480;2023-08-20T08:38:29;4.95;;;2.17;;
21258;SDS011;10787;53.364;-1.480;2023-08-20T08:41:14;8.07;;;2.20;;
21258;SDS011;10787;53.364;-1.480;2023-08-20T08:43:58;6.32;;;2.40;;
21258;SDS011;10787;53.364;-1.480;2023-08-20T08:46:42;6.72;;;2.25;;
21258;SDS011;10787;53.364;-1.480;2023-08-20T08:49:27;7.72;;;2.08;;
21258;SDS011;10787;53.364;-1.480;2023-08-20T08:52:13;4.47;;;2.00;;
21258;SDS011;10787;53.364;-1.480;2023-08-20T08:54:58;6.32;;;1.80;;
21258;SDS011;10787;53.364;-1.480;2023-08-20T08:57:42;6.32;;;2.00;;
21258;SDS011;10787;53.364;-1.480;2023-08-20T09:00:26;7.10;;;1.85;;
21258;SDS011;10787;53.364;-1.480;2023-08-20T09:03:11;5.00;;;1.77;;
21258;SDS011;10787;53.364;-1.480;2023-08-20T09:05:56;5.82;;;1.88;;
21258;SDS011;10787;53.364;-1.480;2023-08-20T09:08:44;5.88;;;1.90;;
21258;SDS011;10787;53.364;-1.480;2023-08-20T09:11:34;7.85;;;2.10;;
21258;SDS011;10787;53.364;-1.480;2023-08-20T09:14:23;7.60;;;2.00;;
21258;SDS011;10787;53.364;-1.480;2023-08-20T09:17:10;7.57;;;1.85;;
21258;SDS011;10787;53.364;-1.480;2023-08-20T09:19:56;5.38;;;1.70;;
21258;SDS011;10787;53.364;-1.480;2023-08-20T09:22:45;8.10;;;1.90;;
21258;SDS011;10787;53.364;-1.480;2023-08-20T09:25:32;5.63;;;1.67;;
21258;SDS011;10787;53.364;-1.480;2023-08-20T09:28:16;5.30;;;1.77;;
21258;SDS011;10787;53.364;-1.480;2023-08-20T09:31:01;7.75;;;1.70;;
21258;SDS011;10787;53.364;-1.480;2023-08-20T09:33:52;5.53;;;1.83;;
21258;SDS011;10787;53.364;-1.480;2023-08-20T09:36:37;7.20;;;1.75;;
21258;SDS011;10787;53.364;-1.480;2023-08-20T09:39:22;5.45;;;1.90;;
21258;SDS011;10787;53.364;-1.480;2023-08-20T09:42:08;6.95;;;1.90;;
21258;SDS011;10787;53.364;-1.480;2023-08-20T09:44:53;5.32;;;1.80;;
21258;SDS011;10787;53.364;-1.480;2023-08-20T09:47:38;5.80;;;1.92;;
21258;SDS011;10787;53.364;-1.480;2023-08-20T09:50:26;4.03;;;1.70;;
21258;SDS011;10787;53.364;-1.480;2023-08-20T09:53:27;7.43;;;2.25;;
21258;SDS011;10787;53.364;-1.480;2023-08-20T09:56:25;7.20;;;2.00;;
21258;SDS011;10787;53.364;-1.480;2023-08-20T09:59:15;5.20;;;1.90;;
21258;SDS011;10787;53.364;-1.480;2023-08-20T10:02:00;5.68;;;1.70;;
21258;SDS011;10787;53.364;-1.480;2023-08-20T10:04:45;4.97;;;1.83;;
21258;SDS011;10787;53.364;-1.480;2023-08-20T10:07:31;4.63;;;1.77;;
21258;SDS011;10787;53.364;-1.480;2023-08-20T10:10:16;3.15;;;1.70;;
21258;SDS011;10787;53.364;-1.480;2023-08-20T10:13:01;5.32;;;1.88;;
21258;SDS011;10787;53.364;-1.480;2023-08-20T10:15:46;6.47;;;1.70;;
21258;SDS011;10787;53.364;-1.480;2023-08-20T10:18:30;5.20;;;1.52;;
21258;SDS011;10787;53.364;-1.480;2023-08-20T10:21:17;7.05;;;1.60;;
21258;SDS011;10787;53.364;-1.480;2023-08-20T10:24:06;4.55;;;1.50;;
21258;SDS011;10787;53.364;-1.480;2023-08-20T10:27:06;4.82;;;1.25;;
21258;SDS011;10787;53.364;-1.480;2023-08-20T10:29:53;6.03;;;1.60;;
21258;SDS011;10787;53.364;-1.480;2023-08-20T10:38:23;4.32;;;1.70;;
21258;SDS011;10787;53.364;-1.480;2023-08-20T10:41:07;3.10;;;1.60;;
21258;SDS011;10787;53.364;-1.480;2023-08-20T10:43:52;4.88;;;1.60;;
21258;SDS011;10787;53.364;-1.480;2023-08-20T10:46:49;5.15;;;1.83;;
21258;SDS011;10787;53.364;-1.480;2023-08-20T10:49:37;6.32;;;1.48;;
21258;SDS011;10787;53.364;-1.480;2023-08-20T10:52:24;5.53;;;1.88;;
21258;SDS011;10787;53.364;-1.480;2023-08-20T10:55:08;4.65;;;1.75;;
21258;SDS011;10787;53.364;-1.480;2023-08-20T10:57:56;4.90;;;1.90;;
21258;SDS011;10787;53.364;-1.480;2023-08-20T11:00:43;4.32;;;1.65;;
21258;SDS011;10787;53.364;-1.480;2023-08-20T11:03:27;3.80;;;1.80;;
21258;SDS011;10787;53.364;-1.480;2023-08-20T11:06:12;3.30;;;1.70;;
21258;SDS011;10787;53.364;-1.480;2023-08-20T11:08:57;5.38;;;1.85;;
21258;SDS011;10787;53.364;-1.480;2023-08-20T11:11:42;5.47;;;1.70;;
21258;SDS011;10787;53.364;-1.480;2023-08-20T11:14:27;3.42;;;1.50;;
21258;SDS011;10787;53.364;-1.480;2023-08-20T11:17:11;5.93;;;1.80;;
21258;SDS011;10787;53.364;-1.480;2023-08-20T11:19:57;4.75;;;1.80;;
21258;SDS011;10787;53.364;-1.480;2023-08-20T11:22:41;4.05;;;1.52;;
21258;SDS011;10787;53.364;-1.480;2023-08-20T11:25:26;4.13;;;1.70;;
21258;SDS011;10787;53.364;-1.480;2023-08-20T11:28:10;5.22;;;1.70;;
21258;SDS011;10787;53.364;-1.480;2023-08-20T11:30:55;3.35;;;1.60;;
21258;SDS011;10787;53.364;-1.480;2023-08-20T11:33:40;11.25;;;2.00;;
21258;SDS011;10787;53.364;-1.480;2023-08-20T11:36:24;3.67;;;1.40;;
21258;SDS011;10787;53.364;-1.480;2023-08-20T11:39:08;3.60;;;1.50;;
21258;SDS011;10787;53.364;-1.480;2023-08-20T11:41:53;4.95;;;1.60;;
21258;SDS011;10787;53.364;-1.480;2023-08-20T11:44:44;5.75;;;2.00;;
21258;SDS011;10787;53.364;-1.480;2023-08-20T11:47:30;3.85;;;1.80;;
21258;SDS011;10787;53.364;-1.480;2023-08-20T11:50:23;5.85;;;1.70;;
21258;SDS011;10787;53.364;-1.480;2023-08-20T11:53:08;3.85;;;1.40;;
21258;SDS011;10787;53.364;-1.480;2023-08-20T11:55:54;2.60;;;1.45;;
21258;SDS011;10787;53.364;-1.480;2023-08-20T11:58:38;5.07;;;1.52;;
21258;SDS011;10787;53.364;-1.480;2023-08-20T12:01:22;4.07;;;1.38;;
21258;SDS011;10787;53.364;-1.480;2023-08-20T12:04:08;3.22;;;1.30;;
21258;SDS011;10787;53.364;-1.480;2023-08-20T12:07:08;2.80;;;1.60;;
21258;SDS011;10787;53.364;-1.480;2023-08-20T12:09:54;3.58;;;1.70;;
21258;SDS011;10787;53.364;-1.480;2023-08-20T12:12:38;4.43;;;1.50;;
21258;SDS011;10787;53.364;-1.480;2023-08-20T12:15:24;3.30;;;1.48;;
21258;SDS011;10787;53.364;-1.480;2023-08-20T12:18:08;3.92;;;1.30;;
21258;SDS011;10787;53.364;-1.480;2023-08-20T12:20:54;2.30;;;1.20;;
21258;SDS011;10787;53.364;-1.480;2023-08-20T12:23:38;2.97;;;1.50;;
21258;SDS011;10787;53.364;-1.480;2023-08-20T12:26:22;2.92;;;1.23;;
21258;SDS011;10787;53.364;-1.480;2023-08-20T12:29:07;4.50;;;1.30;;
21258;SDS011;10787;53.364;-1.480;2023-08-20T12:31:51;3.08;;;1.48;;
21258;SDS011;10787;53.364;-1.480;2023-08-20T12:34:35;2.30;;;1.20;;
21258;SDS011;10787;53.364;-1.480;2023-08-20T12:37:20;3.80;;;1.52;;
21258;SDS011;10787;53.364;-1.480;2023-08-20T12:40:05;4.90;;;2.00;;
21258;SDS011;10787;53.364;-1.480;2023-08-20T12:42:54;3.10;;;1.88;;
21258;SDS011;10787;53.364;-1.480;2023-08-20T12:45:38;4.65;;;1.85;;
21258;SDS011;10787;53.364;-1.480;2023-08-20T12:48:22;4.53;;;1.80;;
21258;SDS011;10787;53.364;-1.480;2023-08-20T12:51:07;3.55;;;2.05;;
21258;SDS011;10787;53.364;-1.480;2023-08-20T12:53:52;4.25;;;2.45;;
21258;SDS011;10787;53.364;-1.480;2023-08-20T12:56:36;4.25;;;2.55;;
21258;SDS011;10787;53.364;-1.480;2023-08-20T12:59:21;8.52;;;4.35;;
21258;SDS011;10787;53.364;-1.480;2023-08-20T13:02:05;8.20;;;4.93;;
21258;SDS011;10787;53.364;-1.480;2023-08-20T13:04:49;6.50;;;4.53;;
21258;SDS011;10787;53.364;-1.480;2023-08-20T13:07:33;6.05;;;3.85;;
21258;SDS011;10787;53.364;-1.480;2023-08-20T13:10:18;5.05;;;2.67;;
21258;SDS011;10787;53.364;-1.480;2023-08-20T13:13:03;5.72;;;3.25;;
21258;SDS011;10787;53.364;-1.480;2023-08-20T13:15:49;4.82;;;2.60;;
21258;SDS011;10787;53.364;-1.480;2023-08-20T13:18:35;4.07;;;2.15;;
21258;SDS011;10787;53.364;-1.480;2023-08-20T13:21:19;3.88;;;2.20;;
21258;SDS011;10787;53.364;-1.480;2023-08-20T13:24:05;4.45;;;2.10;;
21258;SDS011;10787;53.364;-1.480;2023-08-20T13:26:51;5.03;;;3.80;;
21258;SDS011;10787;53.364;-1.480;2023-08-20T13:29:35;3.90;;;2.20;;
21258;SDS011;10787;53.364;-1.480;2023-08-20T13:32:20;3.65;;;2.00;;
21258;SDS011;10787;53.364;-1.480;2023-08-20T13:35:04;4.28;;;2.38;;
21258;SDS011;10787;53.364;-1.480;2023-08-20T13:37:49;5.45;;;2.28;;
21258;SDS011;10787;53.364;-1.480;2023-08-20T13:40:33;4.00;;;1.85;;
21258;SDS011;10787;53.364;-1.480;2023-08-20T13:43:17;3.50;;;1.90;;
21258;SDS011;10787;53.364;-1.480;2023-08-20T13:46:02;5.07;;;1.95;;
21258;SDS011;10787;53.364;-1.480;2023-08-20T13:48:47;3.08;;;1.33;;
21258;SDS011;10787;53.364;-1.480;2023-08-20T13:51:31;3.42;;;1.52;;
21258;SDS011;10787;53.364;-1.480;2023-08-20T13:54:15;3.42;;;1.50;;
21258;SDS011;10787;53.364;-1.480;2023-08-20T13:56:59;3.08;;;1.95;;
21258;SDS011;10787;53.364;-1.480;2023-08-20T13:59:43;3.25;;;1.70;;
21258;SDS011;10787;53.364;-1.480;2023-08-20T14:02:28;3.75;;;1.20;;
21258;SDS011;10787;53.364;-1.480;2023-08-20T14:05:12;2.60;;;1.00;;
21258;SDS011;10787;53.364;-1.480;2023-08-20T14:07:56;2.35;;;1.02;;
21258;SDS011;10787;53.364;-1.480;2023-08-20T14:10:41;3.03;;;1.10;;
21258;SDS011;10787;53.364;-1.480;2023-08-20T14:13:25;3.17;;;1.40;;
21258;SDS011;10787;53.364;-1.480;2023-08-20T14:16:09;3.40;;;1.42;;
21258;SDS011;10787;53.364;-1.480;2023-08-20T14:18:54;2.17;;;1.00;;
21258;SDS011;10787;53.364;-1.480;2023-08-20T14:21:39;2.45;;;1.20;;
21258;SDS011;10787;53.364;-1.480;2023-08-20T14:24:24;1.75;;;1.15;;
21258;SDS011;10787;53.364;-1.480;2023-08-20T14:27:08;1.60;;;1.00;;
21258;SDS011;10787;53.364;-1.480;2023-08-20T14:29:52;2.15;;;1.30;;
21258;SDS011;10787;53.364;-1.480;2023-08-20T14:32:37;4.25;;;2.10;;
21258;SDS011;10787;53.364;-1.480;2023-08-20T14:35:22;3.55;;;1.20;;
21258;SDS011;10787;53.364;-1.480;2023-08-20T14:38:06;2.45;;;1.10;;
21258;SDS011;10787;53.364;-1.480;2023-08-20T14:40:51;2.80;;;1.27;;
21258;SDS011;10787;53.364;-1.480;2023-08-20T14:43:36;3.03;;;1.13;;
21258;SDS011;10787;53.364;-1.480;2023-08-20T14:46:20;2.53;;;1.02;;
21258;SDS011;10787;53.364;-1.480;2023-08-20T14:49:04;4.45;;;1.10;;
21258;SDS011;10787;53.364;-1.480;2023-08-20T14:51:48;1.92;;;1.10;;
21258;SDS011;10787;53.364;-1.480;2023-08-20T14:54:32;2.30;;;1.10;;
21258;SDS011;10787;53.364;-1.480;2023-08-20T14:57:17;1.48;;;1.00;;
21258;SDS011;10787;53.364;-1.480;2023-08-20T15:00:02;2.95;;;1.27;;
21258;SDS011;10787;53.364;-1.480;2023-08-20T15:02:51;3.28;;;1.10;;
21258;SDS011;10787;53.364;-1.480;2023-08-20T15:05:35;3.17;;;1.20;;
21258;SDS011;10787;53.364;-1.480;2023-08-20T15:08:19;2.53;;;1.20;;
21258;SDS011;10787;53.364;-1.480;2023-08-20T15:11:03;2.13;;;1.20;;
21258;SDS011;10787;53.364;-1.480;2023-08-20T15:13:48;1.98;;;1.20;;
21258;SDS011;10787;53.364;-1.480;2023-08-20T15:16:32;3.92;;;1.30;;
21258;SDS011;10787;53.364;-1.480;2023-08-20T15:19:16;1.80;;;1.20;;
21258;SDS011;10787;53.364;-1.480;2023-08-20T15:22:00;2.92;;;1.30;;
21258;SDS011;10787;53.364;-1.480;2023-08-20T15:24:46;4.88;;;1.60;;
21258;SDS011;10787;53.364;-1.480;2023-08-20T15:27:31;3.13;;;1.50;;
21258;SDS011;10787;53.364;-1.480;2023-08-20T15:30:15;2.92;;;1.60;;
21258;SDS011;10787;53.364;-1.480;2023-08-20T15:33:01;3.38;;;1.60;;
21258;SDS011;10787;53.364;-1.480;2023-08-20T15:35:47;2.65;;;1.40;;
21258;SDS011;10787;53.364;-1.480;2023-08-20T15:38:32;2.63;;;1.60;;
21258;SDS011;10787;53.364;-1.480;2023-08-20T15:41:16;3.30;;;1.50;;
21258;SDS011;10787;53.364;-1.480;2023-08-20T15:44:01;2.90;;;1.50;;
21258;SDS011;10787;53.364;-1.480;2023-08-20T15:46:46;3.08;;;1.27;;
21258;SDS011;10787;53.364;-1.480;2023-08-20T15:49:30;2.15;;;1.30;;
21258;SDS011;10787;53.364;-1.480;2023-08-20T15:52:14;2.83;;;1.45;;
21258;SDS011;10787;53.364;-1.480;2023-08-20T15:54:58;2.85;;;1.50;;
21258;SDS011;10787;53.364;-1.480;2023-08-20T15:57:42;3.13;;;1.33;;
21258;SDS011;10787;53.364;-1.480;2023-08-20T16:00:27;2.03;;;1.58;;
21258;SDS011;10787;53.364;-1.480;2023-08-20T16:03:13;4.38;;;1.50;;
21258;SDS011;10787;53.364;-1.480;2023-08-20T16:05:57;3.58;;;1.60;;
21258;SDS011;10787;53.364;-1.480;2023-08-20T16:08:45;15.32;;;2.72;;
21258;SDS011;10787;53.364;-1.480;2023-08-20T16:11:31;6.93;;;2.75;;
21258;SDS011;10787;53.364;-1.480;2023-08-20T16:14:16;3.05;;;1.70;;
21258;SDS011;10787;53.364;-1.480;2023-08-20T16:17:00;4.05;;;2.03;;
21258;SDS011;10787;53.364;-1.480;2023-08-20T16:19:44;4.72;;;2.75;;
21258;SDS011;10787;53.364;-1.480;2023-08-20T16:22:29;2.70;;;1.55;;
21258;SDS011;10787;53.364;-1.480;2023-08-20T16:25:14;2.95;;;1.70;;
21258;SDS011;10787;53.364;-1.480;2023-08-20T16:27:58;2.60;;;1.40;;